Sao Jose do Norte, Brazil
Current Conditions -  °F | °C
As of 1:00 PM on Friday 28 Nov 2014 (Local Time) from SBPK Reporting Station
Clear Clear  
Wind Chill: 77°   Ceiling: Unl
Heat Index: 78°   Visibility: 6mi
Dew Point: 54°   Wind: 13mph
Humidity: 44%   Direction: 120°ESE
Pressure: 30.09"   Gusts: NA
Location:  32.01°S, 52.04°W
Report Text: SBPK 281500Z 12011KT CAVOK 25/12 Q1019
Loading
Personal Weather Stations






























Interactive Weather Map New forecast layout! Learn more

10-Day Weather Forecast

Advertisements
Track Severe Weather on mobile